createdAt,value
2019-05-11T00:00:15.321Z,81.20
2019-05-11T00:02:44.009Z,81.20
2019-05-11T00:05:12.623Z,81.20
2019-05-11T00:07:41.286Z,81.20
2019-05-11T00:10:09.895Z,81.20
2019-05-11T00:12:38.511Z,81.70
2019-05-11T00:15:07.165Z,81.30
2019-05-11T00:17:35.870Z,81.20
2019-05-11T00:20:07.829Z,81.20
2019-05-11T00:22:36.709Z,81.20
2019-05-11T00:25:06.407Z,81.30
2019-05-11T00:27:35.080Z,81.20
2019-05-11T00:30:04.151Z,81.30
2019-05-11T00:32:33.352Z,81.50
2019-05-11T00:35:02.338Z,81.70
2019-05-11T00:37:31.041Z,81.80
2019-05-11T00:40:13.295Z,81.90
2019-05-11T00:42:29.990Z,82.20
2019-05-11T00:44:58.593Z,82.30
2019-05-11T00:47:27.183Z,82.50
2019-05-11T00:49:55.802Z,82.60
2019-05-11T00:52:24.409Z,82.70
2019-05-11T00:54:53.010Z,82.70
2019-05-11T00:57:21.619Z,82.80
2019-05-11T00:59:50.227Z,83.40
2019-05-11T01:02:18.836Z,82.80
2019-05-11T01:04:47.462Z,82.90
2019-05-11T01:07:17.058Z,82.90
2019-05-11T01:09:45.728Z,82.90
2019-05-11T01:12:14.414Z,82.80
2019-05-11T01:14:43.100Z,83.00
2019-05-11T01:17:11.698Z,83.00
2019-05-11T01:19:40.404Z,83.10
2019-05-11T01:22:09.014Z,83.20
2019-05-11T01:24:37.633Z,83.20
2019-05-11T01:27:06.308Z,83.20
2019-05-11T01:29:34.951Z,83.10
2019-05-11T01:32:03.599Z,83.20
2019-05-11T01:34:32.178Z,83.20
2019-05-11T01:37:00.849Z,82.80
2019-05-11T01:39:29.470Z,82.40
2019-05-11T01:41:58.078Z,82.80
2019-05-11T01:44:26.726Z,82.60
2019-05-11T01:46:55.413Z,83.20
2019-05-11T01:49:24.184Z,83.70
2019-05-11T01:51:52.862Z,84.00
2019-05-11T01:54:21.472Z,83.60
2019-05-11T01:56:50.160Z,83.40
2019-05-11T01:59:18.844Z,82.80
2019-05-11T02:01:47.534Z,82.20
2019-05-11T02:04:16.132Z,83.00
2019-05-11T02:06:44.827Z,84.10
2019-05-11T02:09:13.532Z,84.80
2019-05-11T02:11:42.201Z,85.10
2019-05-11T02:14:10.888Z,86.10
2019-05-11T02:16:39.574Z,85.40
2019-05-11T02:19:08.414Z,85.30
2019-05-11T02:21:37.057Z,85.20
2019-05-11T02:24:05.712Z,85.00
2019-05-11T02:26:34.305Z,84.90
2019-05-11T02:29:02.949Z,84.70
2019-05-11T02:31:31.560Z,84.50
2019-05-11T02:34:00.190Z,84.50
2019-05-11T02:36:28.837Z,84.30
2019-05-11T02:38:57.524Z,84.40
2019-05-11T02:41:36.145Z,84.30
2019-05-11T02:43:56.509Z,84.20
2019-05-11T02:46:25.199Z,84.10
2019-05-11T02:48:53.886Z,84.10
2019-05-11T02:51:22.607Z,83.80
2019-05-11T02:53:51.331Z,83.80
2019-05-11T02:56:20.023Z,83.90
2019-05-11T02:58:48.641Z,84.00
2019-05-11T03:01:17.391Z,84.40
2019-05-11T03:03:46.141Z,84.60
2019-05-11T03:06:14.766Z,84.60
2019-05-11T03:08:43.362Z,84.80
2019-05-11T03:11:11.976Z,84.80
2019-05-11T03:13:40.607Z,84.80
2019-05-11T03:16:09.283Z,85.20
2019-05-11T03:18:37.968Z,85.40
2019-05-11T03:21:06.694Z,85.80
2019-05-11T03:23:35.416Z,85.90
2019-05-11T03:26:04.181Z,86.00
2019-05-11T03:28:32.867Z,86.10
2019-05-11T03:31:01.499Z,86.20
2019-05-11T03:33:30.176Z,86.10
2019-05-11T03:35:58.926Z,85.50
2019-05-11T03:38:27.613Z,84.90
2019-05-11T03:40:56.299Z,84.30
2019-05-11T03:43:25.000Z,84.10
2019-05-11T03:45:53.750Z,84.20
2019-05-11T03:48:22.498Z,84.40
2019-05-11T03:50:51.134Z,84.60
2019-05-11T03:53:19.741Z,84.40
2019-05-11T03:55:49.497Z,84.40
2019-05-11T03:58:18.187Z,84.40
2019-05-11T04:00:46.876Z,84.40
2019-05-11T04:03:15.557Z,84.50
2019-05-11T04:05:44.338Z,84.60
2019-05-11T04:08:13.162Z,84.70
2019-05-11T04:10:41.922Z,84.90
2019-05-11T04:13:11.590Z,85.70
2019-05-11T04:15:40.293Z,85.10
2019-05-11T04:18:08.978Z,85.20
2019-05-11T04:20:37.591Z,85.20
2019-05-11T04:23:07.273Z,85.30
2019-05-11T04:25:35.969Z,85.40
2019-05-11T04:28:05.799Z,85.40
2019-05-11T04:30:34.483Z,85.50
2019-05-11T04:33:03.097Z,85.40
2019-05-11T04:35:31.703Z,85.60
2019-05-11T04:38:00.317Z,85.80
2019-05-11T04:40:28.960Z,85.90
2019-05-11T04:42:57.620Z,86.00
2019-05-11T04:45:26.314Z,86.30
2019-05-11T04:47:56.138Z,86.30
2019-05-11T04:50:24.826Z,86.60
2019-05-11T04:52:53.467Z,86.70
2019-05-11T04:55:22.194Z,86.80
2019-05-11T04:57:50.918Z,86.90
2019-05-11T05:00:19.568Z,86.90
2019-05-11T05:02:48.255Z,87.00
2019-05-11T05:05:16.864Z,87.30
2019-05-11T05:07:48.973Z,87.50
2019-05-11T05:10:19.933Z,87.80
2019-05-11T05:12:50.438Z,88.10
2019-05-11T05:15:16.219Z,88.50
2019-05-11T05:17:44.814Z,88.40
2019-05-11T05:20:13.513Z,88.50
2019-05-11T05:22:42.205Z,88.50
2019-05-11T05:25:10.845Z,88.50
2019-05-11T05:27:39.501Z,88.40
2019-05-11T05:30:08.323Z,88.30
2019-05-11T05:32:37.248Z,88.00
2019-05-11T05:35:05.931Z,87.70
2019-05-11T05:37:34.628Z,87.50
2019-05-11T05:40:03.391Z,87.30
2019-05-11T05:42:32.153Z,87.00
2019-05-11T05:45:00.829Z,86.80
2019-05-11T05:47:29.528Z,86.80
2019-05-11T05:49:58.177Z,86.70
2019-05-11T05:52:26.814Z,86.60
2019-05-11T05:54:55.388Z,86.50
2019-05-11T05:57:24.031Z,86.20
2019-05-11T05:59:52.788Z,86.00
2019-05-11T06:02:21.496Z,85.90
2019-05-11T06:04:51.285Z,85.80
2019-05-11T06:07:20.174Z,85.50
2019-05-11T06:09:48.857Z,85.40
2019-05-11T06:12:17.552Z,85.40
2019-05-11T06:14:47.292Z,86.30
2019-05-11T06:17:15.897Z,85.40
2019-05-11T06:19:44.603Z,85.20
2019-05-11T06:22:13.276Z,85.10
2019-05-11T06:24:41.885Z,85.00
2019-05-11T06:27:10.585Z,84.70
2019-05-11T06:29:39.351Z,84.70
2019-05-11T06:32:08.114Z,84.80
2019-05-11T06:34:36.801Z,84.70
2019-05-11T06:37:05.484Z,83.90
2019-05-11T06:39:34.212Z,82.70
2019-05-11T06:42:02.827Z,82.50
2019-05-11T06:44:31.442Z,82.50
2019-05-11T06:47:00.230Z,82.00
2019-05-11T06:49:28.829Z,81.90
2019-05-11T06:51:57.460Z,81.70
2019-05-11T06:54:26.073Z,81.20
2019-05-11T06:56:54.661Z,80.80
2019-05-11T06:59:23.270Z,79.70
2019-05-11T07:01:51.900Z,79.50
2019-05-11T07:04:20.485Z,79.20
2019-05-11T07:06:49.112Z,78.40
2019-05-11T07:09:17.733Z,77.40
2019-05-11T07:11:46.316Z,76.40
2019-05-11T07:14:20.599Z,75.70
2019-05-11T07:16:45.159Z,75.70
2019-05-11T07:19:13.762Z,75.40
2019-05-11T07:21:42.424Z,74.60
2019-05-11T07:24:11.090Z,73.60
2019-05-11T07:26:39.982Z,73.30
2019-05-11T07:29:08.657Z,73.00
2019-05-11T07:31:37.263Z,72.80
2019-05-11T07:34:08.011Z,73.50
2019-05-11T07:36:38.579Z,73.50
2019-05-11T07:39:08.315Z,73.00
2019-05-11T07:41:38.664Z,72.40
2019-05-11T07:44:06.930Z,70.90
2019-05-11T07:46:37.569Z,69.80
2019-05-11T07:49:08.755Z,70.00
2019-05-11T07:51:38.939Z,68.70
2019-05-11T07:54:08.457Z,68.30
2019-05-11T07:56:39.107Z,66.90
2019-05-11T07:59:08.042Z,66.10
2019-05-11T08:01:38.610Z,66.90
2019-05-11T08:04:07.837Z,67.90
2019-05-11T08:06:38.886Z,66.90
2019-05-11T08:09:08.390Z,64.20
2019-05-11T08:11:38.932Z,64.50
2019-05-11T08:14:08.573Z,63.70
2019-05-11T08:16:39.033Z,61.60
2019-05-11T08:19:10.555Z,61.90
2019-05-11T08:21:38.891Z,61.00
2019-05-11T08:24:09.192Z,61.80
2019-05-11T08:26:38.650Z,61.40
2019-05-11T08:29:08.093Z,63.20
2019-05-11T08:31:38.545Z,63.30
2019-05-11T08:34:08.818Z,63.60
2019-05-11T08:36:38.132Z,63.50
2019-05-11T08:39:07.806Z,63.30
2019-05-11T08:41:38.454Z,62.80
2019-05-11T08:44:08.942Z,61.90
2019-05-11T08:46:38.598Z,60.80
2019-05-11T08:49:08.637Z,61.40
2019-05-11T08:51:38.667Z,61.90
2019-05-11T08:54:08.928Z,62.00
2019-05-11T08:56:38.380Z,61.20
2019-05-11T08:59:07.985Z,59.90
2019-05-11T09:01:39.230Z,60.80
2019-05-11T09:04:08.905Z,59.90
2019-05-11T09:06:38.437Z,60.40
2019-05-11T09:09:08.875Z,59.30
2019-05-11T09:11:38.926Z,58.80
2019-05-11T09:14:08.454Z,59.20
2019-05-11T09:16:38.312Z,58.50
2019-05-11T09:19:08.749Z,58.50
2019-05-11T09:21:38.693Z,57.80
2019-05-11T09:24:08.439Z,56.90
2019-05-11T09:26:38.871Z,58.10
2019-05-11T09:29:08.796Z,57.10
2019-05-11T09:31:38.193Z,56.30
2019-05-11T09:34:08.971Z,55.60
2019-05-11T09:36:38.963Z,57.00
2019-05-11T09:39:08.528Z,57.40
2019-05-11T09:41:38.282Z,55.80
2019-05-11T09:44:32.005Z,55.80
2019-05-11T09:47:02.637Z,55.50
2019-05-11T09:49:43.819Z,55.70
2019-05-11T09:52:02.630Z,56.50
2019-05-11T09:54:31.323Z,56.10
2019-05-11T09:56:59.930Z,55.50
2019-05-11T09:59:28.529Z,55.00
2019-05-11T10:01:58.987Z,55.20
2019-05-11T10:04:28.794Z,55.10
2019-05-11T10:06:58.557Z,55.50
2019-05-11T10:09:27.981Z,55.60
2019-05-11T10:11:58.454Z,56.20
2019-05-11T10:14:29.058Z,57.00
2019-05-11T10:16:58.598Z,57.30
2019-05-11T10:19:28.444Z,57.00
2019-05-11T10:21:58.079Z,56.00
2019-05-11T10:24:28.310Z,54.70
2019-05-11T10:26:57.855Z,54.00
2019-05-11T10:29:28.728Z,54.20
2019-05-11T10:31:58.740Z,55.00
2019-05-11T10:34:28.552Z,54.90
2019-05-11T10:36:58.102Z,55.00
2019-05-11T10:39:27.992Z,54.40
2019-05-11T10:41:58.423Z,54.10
2019-05-11T10:44:28.090Z,54.70
2019-05-11T10:46:58.937Z,54.90
2019-05-11T10:49:28.891Z,55.10
2019-05-11T10:51:58.759Z,55.30
2019-05-11T10:54:28.956Z,55.00
2019-05-11T10:56:58.756Z,54.30
2019-05-11T10:59:28.386Z,54.30
2019-05-11T11:01:59.150Z,53.90
2019-05-11T11:04:28.831Z,53.50
2019-05-11T11:06:59.179Z,52.70
2019-05-11T11:09:28.363Z,51.70
2019-05-11T11:11:57.926Z,51.40
2019-05-11T11:14:28.743Z,51.30
2019-05-11T11:16:58.364Z,50.40
2019-05-11T11:19:28.917Z,49.60
2019-05-11T11:22:07.870Z,48.50
2019-05-11T11:24:28.720Z,48.60
2019-05-11T11:26:57.751Z,49.30
2019-05-11T11:29:28.580Z,50.00
2019-05-11T11:31:58.624Z,49.80
2019-05-11T11:34:27.999Z,48.50
2019-05-11T11:36:58.142Z,48.10
2019-05-11T11:39:28.246Z,46.30
2019-05-11T11:42:17.871Z,46.50
2019-05-11T11:44:48.377Z,45.80
2019-05-11T11:47:21.428Z,45.90
2019-05-11T11:49:47.664Z,44.40
2019-05-11T11:52:18.656Z,45.20
2019-05-11T11:54:47.911Z,45.20
2019-05-11T11:57:18.219Z,44.60
2019-05-11T11:59:48.165Z,45.80
2019-05-11T12:02:19.115Z,46.70
2019-05-11T12:04:48.590Z,46.10
2019-05-11T12:07:18.018Z,46.30
2019-05-11T12:09:48.466Z,46.50
2019-05-11T12:12:18.663Z,46.10
2019-05-11T12:14:48.346Z,46.30
2019-05-11T12:17:18.295Z,45.80
2019-05-11T12:19:47.891Z,46.90
2019-05-11T12:22:18.590Z,47.70
2019-05-11T12:24:48.178Z,49.00
2019-05-11T12:27:18.249Z,50.10
2019-05-11T12:29:47.698Z,50.80
2019-05-11T12:32:21.015Z,51.50
2019-05-11T12:34:49.634Z,51.40
2019-05-11T12:37:20.235Z,50.70
2019-05-11T12:39:48.475Z,50.50
2019-05-11T12:42:17.971Z,50.40
2019-05-11T12:44:48.143Z,50.00
2019-05-11T12:47:22.197Z,50.70
2019-05-11T12:49:48.380Z,51.40
2019-05-11T12:52:18.523Z,51.90
2019-05-11T12:54:47.971Z,52.20
2019-05-11T12:57:18.656Z,52.20
2019-05-11T12:59:48.753Z,52.20
2019-05-11T13:02:18.485Z,52.10
2019-05-11T13:04:47.724Z,51.90
2019-05-11T13:07:19.374Z,52.10
2019-05-11T13:09:48.476Z,51.80
2019-05-11T13:12:18.631Z,51.50
2019-05-11T13:14:48.860Z,51.60
2019-05-11T13:17:18.596Z,51.90
2019-05-11T13:19:48.108Z,52.30
2019-05-11T13:22:18.327Z,51.70
2019-05-11T13:24:48.161Z,51.40
2019-05-11T13:27:17.918Z,50.60
2019-05-11T13:29:48.612Z,49.00
2019-05-11T13:32:18.638Z,47.50
2019-05-11T13:34:48.026Z,46.40
2019-05-11T13:37:18.823Z,46.30
2019-05-11T13:39:48.580Z,46.20
2019-05-11T13:42:19.500Z,46.70
2019-05-11T13:44:47.961Z,47.90
2019-05-11T13:47:18.009Z,49.40
2019-05-11T13:49:47.962Z,49.60
2019-05-11T13:52:18.083Z,48.60
2019-05-11T13:54:48.267Z,49.50
2019-05-11T13:57:18.131Z,50.00
2019-05-11T13:59:47.749Z,49.60
2019-05-11T14:02:18.087Z,49.10
2019-05-11T14:04:48.104Z,50.10
2019-05-11T14:07:18.614Z,51.10
2019-05-11T14:10:12.818Z,52.00
2019-05-11T14:12:41.444Z,52.20
2019-05-11T14:15:10.065Z,53.30
2019-05-11T14:17:38.883Z,53.50
2019-05-11T14:20:08.914Z,54.30
2019-05-11T14:22:38.756Z,54.60
2019-05-11T14:25:08.148Z,54.80
2019-05-11T14:27:39.118Z,55.50
2019-05-11T14:30:08.530Z,56.00
2019-05-11T14:32:38.950Z,56.70
2019-05-11T14:35:11.626Z,57.20
2019-05-11T14:37:38.270Z,57.70
2019-05-11T14:40:08.797Z,58.60
2019-05-11T14:42:38.239Z,58.30
2019-05-11T14:45:08.479Z,58.40
2019-05-11T14:47:38.673Z,58.30
2019-05-11T14:50:08.579Z,58.20
2019-05-11T14:52:38.808Z,57.80
2019-05-11T14:55:08.257Z,57.80
2019-05-11T14:57:39.391Z,57.90
2019-05-11T15:00:08.301Z,58.00
2019-05-11T15:02:58.534Z,57.90
2019-05-11T15:05:28.302Z,57.90
2019-05-11T15:07:58.156Z,58.10
2019-05-11T15:10:27.728Z,58.30
2019-05-11T15:12:58.929Z,58.70
2019-05-11T15:15:27.938Z,58.90
2019-05-11T15:17:58.155Z,59.40
2019-05-11T15:20:28.412Z,59.70
2019-05-11T15:22:58.163Z,59.70
2019-05-11T15:25:28.946Z,59.70
2019-05-11T15:27:58.989Z,59.90
2019-05-11T15:30:28.774Z,60.30
2019-05-11T15:32:58.487Z,60.50
2019-05-11T15:35:28.445Z,60.60
2019-05-11T15:37:58.242Z,60.70
2019-05-11T15:40:27.839Z,61.10
2019-05-11T15:42:58.562Z,61.60
2019-05-11T15:45:27.823Z,61.80
2019-05-11T15:47:58.724Z,61.80
2019-05-11T15:50:29.134Z,62.00
2019-05-11T15:52:58.216Z,62.40
2019-05-11T15:55:27.867Z,62.90
2019-05-11T15:57:56.713Z,63.40
2019-05-11T16:00:25.476Z,63.80
2019-05-11T16:02:54.047Z,64.10
2019-05-11T16:05:22.764Z,64.60
2019-05-11T16:07:51.345Z,65.10
2019-05-11T16:10:20.016Z,65.00
2019-05-11T16:12:49.029Z,65.20
2019-05-11T16:15:29.822Z,65.60
2019-05-11T16:17:58.578Z,65.90
2019-05-11T16:20:28.544Z,66.20
2019-05-11T16:22:57.409Z,66.80
2019-05-11T16:25:27.999Z,67.00
2019-05-11T16:27:56.914Z,67.30
2019-05-11T16:30:25.542Z,67.70
2019-05-11T16:32:54.125Z,68.20
2019-05-11T16:35:22.737Z,68.60
2019-05-11T16:37:51.347Z,68.90
2019-05-11T16:40:20.916Z,69.20
2019-05-11T16:42:49.943Z,69.60
2019-05-11T16:45:23.303Z,69.90
2019-05-11T16:47:50.373Z,70.30
2019-05-11T16:50:18.983Z,70.90
2019-05-11T16:52:48.356Z,71.30
2019-05-11T16:55:18.316Z,71.70
2019-05-11T16:57:48.354Z,72.10
2019-05-11T17:00:17.430Z,72.40
2019-05-11T17:02:48.644Z,72.80
2019-05-11T17:05:25.913Z,73.00
2019-05-11T17:07:48.388Z,73.20
2019-05-11T17:10:17.921Z,73.30
2019-05-11T17:12:48.495Z,72.90
2019-05-11T17:15:18.575Z,72.60
2019-05-11T17:17:48.631Z,72.40
2019-05-11T17:20:18.788Z,72.30
2019-05-11T17:22:48.271Z,72.20
2019-05-11T17:25:19.258Z,72.10
2019-05-11T17:27:48.577Z,72.00
2019-05-11T17:30:19.155Z,71.80
2019-05-11T17:32:49.267Z,71.70
2019-05-11T17:35:18.651Z,71.70
2019-05-11T17:37:48.525Z,71.70
2019-05-11T17:40:20.430Z,71.90
2019-05-11T17:42:48.259Z,71.90
2019-05-11T17:45:18.839Z,72.20
2019-05-11T17:47:47.422Z,72.50
2019-05-11T17:50:16.054Z,73.70
2019-05-11T17:52:44.661Z,73.10
2019-05-11T17:55:13.276Z,73.30
2019-05-11T17:57:42.023Z,73.50
2019-05-11T18:00:10.701Z,73.80
2019-05-11T18:02:39.652Z,73.80
2019-05-11T18:05:08.921Z,74.10
2019-05-11T18:07:38.520Z,74.30
2019-05-11T18:10:08.173Z,74.30
2019-05-11T18:12:39.067Z,74.40
2019-05-11T18:15:08.202Z,74.40
2019-05-11T18:17:37.219Z,74.40
2019-05-11T18:20:16.869Z,74.30
2019-05-11T18:22:39.108Z,74.30
2019-05-11T18:25:28.743Z,74.20
2019-05-11T18:27:58.195Z,74.10
2019-05-11T18:30:29.317Z,73.90
2019-05-11T18:32:59.396Z,73.70
2019-05-11T18:35:28.496Z,73.40
2019-05-11T18:37:57.151Z,73.40
2019-05-11T18:40:25.757Z,73.30
2019-05-11T18:42:54.382Z,73.20
2019-05-11T18:45:22.968Z,73.90
2019-05-11T18:48:00.202Z,73.60
2019-05-11T18:50:30.976Z,72.70
2019-05-11T18:52:59.090Z,72.50
2019-05-11T18:55:28.196Z,72.20
2019-05-11T18:57:58.163Z,71.80
2019-05-11T19:00:27.671Z,71.60
2019-05-11T19:02:57.983Z,71.20
2019-05-11T19:05:28.995Z,71.00
2019-05-11T19:07:58.431Z,70.50
2019-05-11T19:10:27.779Z,70.30
2019-05-11T19:12:58.748Z,69.90
2019-05-11T19:15:26.709Z,69.80
2019-05-11T19:17:57.907Z,69.60
2019-05-11T19:20:25.602Z,69.30
2019-05-11T19:22:54.212Z,69.20
2019-05-11T19:25:22.971Z,69.20
2019-05-11T19:27:51.582Z,69.00
2019-05-11T19:30:20.265Z,68.80
2019-05-11T19:32:53.186Z,68.70
2019-05-11T19:35:22.222Z,68.60
2019-05-11T19:37:50.978Z,68.50
2019-05-11T19:40:19.564Z,68.30
2019-05-11T19:42:54.897Z,68.10
2019-05-11T19:45:24.466Z,67.80
2019-05-11T19:47:57.810Z,67.90
2019-05-11T19:50:27.203Z,67.90
2019-05-11T19:52:57.989Z,68.70
2019-05-11T19:55:28.555Z,68.10
2019-05-11T19:58:19.250Z,68.10
2019-05-11T20:00:48.813Z,68.20
2019-05-11T20:03:18.408Z,68.20
2019-05-11T20:05:48.513Z,68.40
2019-05-11T20:08:18.413Z,68.60
2019-05-11T20:10:48.699Z,68.90
2019-05-11T20:13:18.025Z,69.10
2019-05-11T20:15:48.512Z,69.30
2019-05-11T20:18:18.429Z,69.30
2019-05-11T20:20:48.055Z,69.30
2019-05-11T20:23:16.919Z,69.40
2019-05-11T20:25:47.658Z,70.30
2019-05-11T20:28:18.016Z,69.40
2019-05-11T20:30:48.101Z,69.60
2019-05-11T20:33:18.731Z,69.70
2019-05-11T20:35:48.662Z,69.70
2019-05-11T20:38:18.800Z,69.80
2019-05-11T20:40:48.473Z,70.00
2019-05-11T20:43:18.648Z,70.00
2019-05-11T20:45:48.620Z,70.10
2019-05-11T20:48:18.514Z,70.20
2019-05-11T20:50:48.346Z,70.00
2019-05-11T20:53:18.041Z,69.90
2019-05-11T20:55:47.894Z,69.80
2019-05-11T20:58:18.798Z,69.80
2019-05-11T21:00:49.084Z,69.90
2019-05-11T21:03:17.928Z,69.60
2019-05-11T21:05:48.286Z,69.70
2019-05-11T21:08:18.004Z,69.60
2019-05-11T21:10:48.818Z,69.70
2019-05-11T21:13:17.894Z,69.80
2019-05-11T21:15:47.864Z,69.90
2019-05-11T21:18:18.394Z,69.80
2019-05-11T21:20:48.350Z,69.60
2019-05-11T21:23:18.604Z,69.60
2019-05-11T21:25:47.533Z,69.50
2019-05-11T21:28:16.186Z,69.30
2019-05-11T21:30:44.817Z,69.20
2019-05-11T21:33:13.513Z,69.20
2019-05-11T21:35:42.193Z,68.90
2019-05-11T21:38:10.809Z,68.80
2019-05-11T21:40:39.418Z,68.60
2019-05-11T21:43:08.722Z,67.70
2019-05-11T21:45:40.529Z,68.00
2019-05-11T21:48:07.901Z,67.90
2019-05-11T21:50:37.162Z,67.80
2019-05-11T21:53:08.135Z,67.80
2019-05-11T21:55:37.773Z,67.70
2019-05-11T21:58:08.882Z,67.90
2019-05-11T22:00:38.620Z,68.20
2019-05-11T22:03:10.200Z,68.20
2019-05-11T22:05:38.405Z,68.20
2019-05-11T22:08:08.590Z,68.10
2019-05-11T22:10:38.596Z,68.20
2019-05-11T22:13:07.427Z,68.30
2019-05-11T22:15:38.333Z,68.40
2019-05-11T22:18:07.971Z,68.60
2019-05-11T22:20:38.029Z,68.70
2019-05-11T22:23:08.463Z,68.40
2019-05-11T22:25:38.154Z,69.10
2019-05-11T22:28:08.509Z,68.30
2019-05-11T22:30:39.276Z,68.10
2019-05-11T22:33:08.805Z,68.10
2019-05-11T22:35:38.380Z,68.00
2019-05-11T22:38:08.356Z,67.90
2019-05-11T22:41:03.344Z,68.20
2019-05-11T22:43:31.949Z,68.80
2019-05-11T22:46:00.566Z,69.30
2019-05-11T22:48:29.158Z,69.80
2019-05-11T22:50:58.594Z,70.60
2019-05-11T22:53:43.343Z,71.10
2019-05-11T22:55:57.692Z,71.50
2019-05-11T22:58:26.313Z,72.20
2019-05-11T23:00:54.908Z,73.20
2019-05-11T23:03:23.522Z,74.00
2019-05-11T23:05:52.146Z,74.30
2019-05-11T23:08:20.752Z,75.60
2019-05-11T23:10:49.936Z,76.50
2019-05-11T23:13:18.785Z,77.00
2019-05-11T23:15:47.819Z,77.50
2019-05-11T23:18:18.008Z,78.00
2019-05-11T23:20:47.867Z,78.70
2019-05-11T23:23:17.798Z,79.20
2019-05-11T23:25:46.589Z,79.50
2019-05-11T23:28:15.206Z,79.60
2019-05-11T23:30:43.781Z,79.70
2019-05-11T23:33:12.392Z,80.10
2019-05-11T23:35:41.004Z,80.10
2019-05-11T23:38:09.637Z,80.60
2019-05-11T23:40:38.282Z,81.00
2019-05-11T23:43:08.785Z,81.40
2019-05-11T23:45:38.233Z,81.70
2019-05-11T23:48:07.000Z,82.10
2019-05-11T23:50:35.600Z,82.20
2019-05-11T23:53:06.529Z,82.30
2019-05-11T23:55:34.461Z,82.30
2019-05-11T23:58:03.060Z,82.10
